Map

Track Data

SID SEASON NUMBER BASIN SUBBASIN NAME ISO_TIME NATURE LAT LON WMO_WIND WMO_PRES WMO_AGENCY TRACK_TYPE DIST2LAND LANDFALL IFLAG USA_AGENCY USA_ATCF_ID USA_LAT USA_LON USA_RECORD USA_STATUS USA_WIND USA_PRES USA_SSHS USA_R34_NE USA_R34_SE USA_R34_SW USA_R34_NW USA_R50_NE USA_R50_SE USA_R50_SW USA_R50_NW USA_R64_NE USA_R64_SE USA_R64_SW USA_R64_NW USA_POCI USA_ROCI USA_RMW USA_EYE TOKYO_LAT TOKYO_LON TOKYO_GRADE TOKYO_WIND TOKYO_PRES TOKYO_R50_DIR TOKYO_R50_LONG TOKYO_R50_SHORT TOKYO_R30_DIR TOKYO_R30_LONG TOKYO_R30_SHORT TOKYO_LAND CMA_LAT CMA_LON CMA_CAT CMA_WIND CMA_PRES HKO_LAT HKO_LON HKO_CAT HKO_WIND HKO_PRES NEWDELHI_LAT NEWDELHI_LON NEWDELHI_GRADE NEWDELHI_WIND NEWDELHI_PRES NEWDELHI_CI NEWDELHI_DP NEWDELHI_POCI REUNION_LAT REUNION_LON REUNION_TYPE REUNION_WIND REUNION_PRES REUNION_TNUM REUNION_CI REUNION_RMW REUNION_R34_NE REUNION_R34_SE REUNION_R34_SW REUNION_R34_NW REUNION_R50_NE REUNION_R50_SE REUNION_R50_SW REUNION_R50_NW REUNION_R64_NE REUNION_R64_SE REUNION_R64_SW REUNION_R64_NW BOM_LAT BOM_LON BOM_TYPE BOM_WIND BOM_PRES BOM_TNUM BOM_CI BOM_RMW BOM_R34_NE BOM_R34_SE BOM_R34_SW BOM_R34_NW BOM_R50_NE BOM_R50_SE BOM_R50_SW BOM_R50_NW BOM_R64_NE BOM_R64_SE BOM_R64_SW BOM_R64_NW BOM_ROCI BOM_POCI BOM_EYE BOM_POS_METHOD BOM_PRES_METHOD NADI_LAT NADI_LON NADI_CAT NADI_WIND NADI_PRES WELLINGTON_LAT WELLINGTON_LON WELLINGTON_WIND WELLINGTON_PRES DS824_LAT DS824_LON DS824_STAGE DS824_WIND DS824_PRES TD9636_LAT TD9636_LON TD9636_STAGE TD9636_WIND TD9636_PRES TD9635_LAT TD9635_LON TD9635_WIND TD9635_PRES TD9635_ROCI NEUMANN_LAT NEUMANN_LON NEUMANN_CLASS NEUMANN_WIND NEUMANN_PRES MLC_LAT MLC_LON MLC_CLASS MLC_WIND MLC_PRES USA_GUST BOM_GUST BOM_GUST_PER REUNION_GUST REUNION_GUST_PER USA_SEAHGT USA_SEARAD_NE USA_SEARAD_SE USA_SEARAD_SW USA_SEARAD_NW STORM_SPEED STORM_DIR
1928219N19140 1928 42 WP MM NOT_NAMED 1928-08-06 10:00:00 NR 18.5000 139.800 main 1669 1654 __________O___ -1 18.5000 139.800 7 4 333
1928219N19140 1928 42 WP MM NOT_NAMED 1928-08-06 12:00:00 NR 18.6269 139.732 main 1654 1630 __________P___ -1 18.6269 139.732 7 4 332
1928219N19140 1928 42 WP MM NOT_NAMED 1928-08-06 15:00:00 NR 18.8196 139.624 main 1630 1605 __________P___ -1 18.8196 139.624 7 5 331
1928219N19140 1928 42 WP MM NOT_NAMED 1928-08-06 18:00:00 NR 19.0185 139.501 main 1605 1580 __________P___ -1 19.0185 139.501 7 5 328
1928219N19140 1928 42 WP MM NOT_NAMED 1928-08-06 21:00:00 NR 19.2275 139.355 main 1580 1565 __________P___ -1 19.2275 139.355 7 5 326
1928219N19140 1928 42 WP MM NOT_NAMED 1928-08-06 22:00:00 NR 19.3000 139.300 main 1565 1550 __________O___ -1 19.3000 139.300 7 6 323
1928219N19140 1928 42 WP MM NOT_NAMED 1928-08-07 00:00:00 NR 19.4500 139.178 main 1541 1511 __________P___ -1 19.4500 139.178 7 6 321
1928219N19140 1928 42 WP MM NOT_NAMED 1928-08-07 03:00:00 NR 19.6875 138.970 main 1511 1475 __________P___ -1 19.6875 138.970 7 6 320
1928219N19140 1928 42 WP MM NOT_NAMED 1928-08-07 06:00:00 NR 19.9400 138.737 main 1475 1436 __________P___ -1 19.9400 138.737 7 7 319
1928219N19140 1928 42 WP MM NOT_NAMED 1928-08-07 09:00:00 NR 20.2075 138.487 main 1436 1421 __________P___ -1 20.2075 138.487 7 7 319
1928219N19140 1928 42 WP MM NOT_NAMED 1928-08-07 10:00:00 NR 20.3000 138.400 main 1421 1391 __________O___ -1 20.3000 138.400 7 7 321
1928219N19140 1928 42 WP MM NOT_NAMED 1928-08-07 12:00:00 NR 20.4830 138.249 main 1391 1352 __________P___ -1 20.4830 138.249 7 7 322
1928219N19140 1928 42 WP MM NOT_NAMED 1928-08-07 15:00:00 NR 20.7702 138.009 main 1352 1307 __________P___ -1 20.7702 138.009 7 8 321
1928219N19140 1928 42 WP MM NOT_NAMED 1928-08-07 18:00:00 NR 21.0726 137.740 main 1307 1262 __________P___ -1 21.0726 137.740 7 8 318
1928219N19140 1928 42 WP MM NOT_NAMED 1928-08-07 21:00:00 NR 21.3906 137.421 main 1262 1247 __________P___ -1 21.3906 137.421 7 9 316
1928219N19140 1928 42 WP MM NOT_NAMED 1928-08-07 22:00:00 NR 21.5000 137.300 main 1247 1212 __________O___ -1 21.5000 137.300 7 10 308
1928219N19140 1928 42 WP MM NOT_NAMED 1928-08-08 00:00:00 NR 21.7045 136.985 main 1212 1158 __________P___ -1 21.7045 136.985 7 11 304
1928219N19140 1928 42 WP MM NOT_NAMED 1928-08-08 03:00:00 NR 22.0229 136.461 main 1158 1089 __________P___ -1 22.0229 136.461 7 12 305
1928219N19140 1928 42 WP MM NOT_NAMED 1928-08-08 06:00:00 NR 22.3688 135.944 main 1089 1031 __________P___ -1 22.3688 135.944 7 11 310
1928219N19140 1928 42 WP MM NOT_NAMED 1928-08-08 09:00:00 NR 22.7579 135.512 main 1031 1016 __________P___ -1 22.7579 135.512 7 11 317
1928219N19140 1928 42 WP MM NOT_NAMED 1928-08-08 10:00:00 NR 22.9000 135.400 main 1016 967 __________O___ -1 22.9000 135.400 7 11 332
1928219N19140 1928 42 WP MM NOT_NAMED 1928-08-08 12:00:00 NR 23.2511 135.227 main 967 913 __________P___ -1 23.2511 135.227 7 12 342
1928219N19140 1928 42 WP MM NOT_NAMED 1928-08-08 15:00:00 NR 23.8235 135.075 main 913 849 __________P___ -1 23.8235 135.075 7 12 352
1928219N19140 1928 42 WP MM NOT_NAMED 1928-08-08 18:00:00 NR 24.3871 135.047 main 849 806 __________P___ -1 24.3871 135.047 7 11 3
1928219N19140 1928 42 WP MM NOT_NAMED 1928-08-08 21:00:00 NR 24.8696 135.142 main 806 801 __________P___ -1 24.8696 135.142 7 9 13
1928219N19140 1928 42 WP MM NOT_NAMED 1928-08-08 22:00:00 NR 25.0000 135.200 main 801 788 __________O___ -1 25.0000 135.200 2 7 30
1928219N19140 1928 42 WP MM NOT_NAMED 1928-08-09 00:00:00 NR 25.1801 135.339 main 788 785 __________P___ -1 25.1801 135.339 2 6 49
1928219N19140 1928 42 WP MM NOT_NAMED 1928-08-09 03:00:00 NR 25.3495 135.649 main 794 790 __________P___ -1 25.3495 135.649 2 7 68
1928219N19140 1928 42 WP MM NOT_NAMED 1928-08-09 06:00:00 NR 25.4365 136.038 main 806 808 __________P___ -1 25.4365 136.038 2 7 80
1928219N19140 1928 42 WP MM NOT_NAMED 1928-08-09 09:00:00 NR 25.4848 136.460 main 825 825 __________P___ -1 25.4848 136.460 2 8 83
1928219N19140 1928 42 WP MM NOT_NAMED 1928-08-09 10:00:00 NR 25.5000 136.600 main 831 831 __________O___ -1 25.5000 136.600 2 7 77
1928219N19140 1928 42 WP MM NOT_NAMED 1928-08-09 12:00:00 NR 25.5605 136.811 main 834 834 __________P___ -1 25.5605 136.811 2 6 74
1928219N19140 1928 42 WP MM NOT_NAMED 1928-08-09 15:00:00 NR 25.6389 137.132 main 853 851 __________P___ -1 25.6389 137.132 2 6 76
1928219N19140 1928 42 WP MM NOT_NAMED 1928-08-09 18:00:00 NR 25.7087 137.493 main 870 867 __________P___ -1 25.7087 137.493 2 7 79
1928219N19140 1928 42 WP MM NOT_NAMED 1928-08-09 21:00:00 NR 25.7767 137.930 main 872 874 __________P___ -1 25.7767 137.930 2 8 81
1928219N19140 1928 42 WP MM NOT_NAMED 1928-08-09 22:00:00 NR 25.8000 138.100 main 876 876 __________O___ -1 25.8000 138.100 2 10 81
1928219N19140 1928 42 WP MM NOT_NAMED 1928-08-10 00:00:00 NR 25.8535 138.500 main 876 876 __________P___ -1 25.8535 138.500 2 12 82
1928219N19140 1928 42 WP MM NOT_NAMED 1928-08-10 03:00:00 NR 25.9332 139.183 main 898 892 __________P___ -1 25.9332 139.183 2 13 83
1928219N19140 1928 42 WP MM NOT_NAMED 1928-08-10 06:00:00 NR 26.0092 139.920 main 915 919 __________P___ -1 26.0092 139.920 2 13 84
1928219N19140 1928 42 WP MM NOT_NAMED 1928-08-10 09:00:00 NR 26.0787 140.661 main 941 941 __________P___ -1 26.0787 140.661 2 13 84
1928219N19140 1928 42 WP MM NOT_NAMED 1928-08-10 10:00:00 NR 26.1000 140.900 main 951 951 __________O___ -1 26.1000 140.900 2 13 84
1928219N19140 1928 42 WP MM NOT_NAMED 1928-08-10 12:00:00 NR 26.1398 141.359 main 976 972 __________P___ -1 26.1398 141.359 2 12 85
1928219N19140 1928 42 WP MM NOT_NAMED 1928-08-10 15:00:00 NR 26.1936 142.006 main 985 985 __________P___ -1 26.1936 142.006 2 11 85
1928219N19140 1928 42 WP MM NOT_NAMED 1928-08-10 18:00:00 NR 26.2418 142.616 main 1004 996 __________P___ -1 26.2418 142.616 2 11 85
1928219N19140 1928 42 WP MM NOT_NAMED 1928-08-10 21:00:00 NR 26.2859 143.205 main 1009 1009 __________P___ -1 26.2859 143.205 2 11 85
1928219N19140 1928 42 WP MM NOT_NAMED 1928-08-10 22:00:00 NR 26.3000 143.400 main 1015 __________O___ -1 26.3000 143.400 2 11 85

Digital Typhoon Data and Search

About IBTrACS Database

This database is a web-friendly format of International Best Track Archive for Climate Stewardship (IBTrACS), a global best track data archive curated by NOAA dating back to 1842.

Updated: 2021-11-26